sensor_id;sensor_type;location;lat;lon;timestamp;P1;durP1;ratioP1;P2;durP2;ratioP2
35324;SDS011;35135;47.510;19.036;2023-12-22T00:01:29;5.80;;;5.18;;
35324;SDS011;35135;47.510;19.036;2023-12-22T00:03:55;5.47;;;4.97;;
35324;SDS011;35135;47.510;19.036;2023-12-22T00:06:21;5.45;;;4.82;;
35324;SDS011;35135;47.510;19.036;2023-12-22T00:08:47;5.88;;;5.38;;
35324;SDS011;35135;47.510;19.036;2023-12-22T00:11:12;5.70;;;5.10;;
35324;SDS011;35135;47.510;19.036;2023-12-22T00:13:38;6.43;;;5.00;;
35324;SDS011;35135;47.510;19.036;2023-12-22T00:16:04;5.97;;;5.35;;
35324;SDS011;35135;47.510;19.036;2023-12-22T00:18:30;5.57;;;5.07;;
35324;SDS011;35135;47.510;19.036;2023-12-22T00:20:56;5.25;;;4.75;;
35324;SDS011;35135;47.510;19.036;2023-12-22T00:23:21;5.63;;;4.93;;
35324;SDS011;35135;47.510;19.036;2023-12-22T00:25:47;5.70;;;5.05;;
35324;SDS011;35135;47.510;19.036;2023-12-22T00:28:13;6.07;;;5.28;;
35324;SDS011;35135;47.510;19.036;2023-12-22T00:30:38;5.72;;;5.10;;
35324;SDS011;35135;47.510;19.036;2023-12-22T00:33:04;5.53;;;4.95;;
35324;SDS011;35135;47.510;19.036;2023-12-22T00:35:30;5.22;;;4.55;;
35324;SDS011;35135;47.510;19.036;2023-12-22T00:37:55;5.32;;;4.82;;
35324;SDS011;35135;47.510;19.036;2023-12-22T00:40:21;6.20;;;4.95;;
35324;SDS011;35135;47.510;19.036;2023-12-22T00:42:47;5.13;;;4.63;;
35324;SDS011;35135;47.510;19.036;2023-12-22T00:45:12;5.10;;;4.32;;
35324;SDS011;35135;47.510;19.036;2023-12-22T00:47:38;4.90;;;4.40;;
35324;SDS011;35135;47.510;19.036;2023-12-22T00:50:04;4.90;;;4.40;;
35324;SDS011;35135;47.510;19.036;2023-12-22T00:52:30;5.07;;;4.57;;
35324;SDS011;35135;47.510;19.036;2023-12-22T00:54:56;4.82;;;4.32;;
35324;SDS011;35135;47.510;19.036;2023-12-22T00:57:22;5.63;;;4.28;;
35324;SDS011;35135;47.510;19.036;2023-12-22T00:59:48;4.72;;;4.25;;
35324;SDS011;35135;47.510;19.036;2023-12-22T01:02:14;5.32;;;4.50;;
35324;SDS011;35135;47.510;19.036;2023-12-22T01:04:40;5.15;;;4.63;;
35324;SDS011;35135;47.510;19.036;2023-12-22T01:07:10;4.57;;;4.18;;
35324;SDS011;35135;47.510;19.036;2023-12-22T01:09:36;4.63;;;4.22;;
35324;SDS011;35135;47.510;19.036;2023-12-22T01:12:03;5.20;;;4.70;;
35324;SDS011;35135;47.510;19.036;2023-12-22T01:14:29;4.60;;;4.18;;
35324;SDS011;35135;47.510;19.036;2023-12-22T01:16:55;4.68;;;4.28;;
35324;SDS011;35135;47.510;19.036;2023-12-22T01:19:21;4.72;;;4.20;;
35324;SDS011;35135;47.510;19.036;2023-12-22T01:21:47;4.78;;;4.28;;
35324;SDS011;35135;47.510;19.036;2023-12-22T01:24:12;5.68;;;4.18;;
35324;SDS011;35135;47.510;19.036;2023-12-22T01:26:38;4.82;;;4.38;;
35324;SDS011;35135;47.510;19.036;2023-12-22T01:29:04;4.78;;;4.28;;
35324;SDS011;35135;47.510;19.036;2023-12-22T01:31:29;4.38;;;3.97;;
35324;SDS011;35135;47.510;19.036;2023-12-22T01:33:55;4.93;;;4.43;;
35324;SDS011;35135;47.510;19.036;2023-12-22T01:36:21;4.60;;;4.18;;
35324;SDS011;35135;47.510;19.036;2023-12-22T01:38:46;4.25;;;3.83;;
35324;SDS011;35135;47.510;19.036;2023-12-22T01:41:13;4.25;;;3.85;;
35324;SDS011;35135;47.510;19.036;2023-12-22T01:43:38;4.28;;;3.88;;
35324;SDS011;35135;47.510;19.036;2023-12-22T01:46:04;4.05;;;3.67;;
35324;SDS011;35135;47.510;19.036;2023-12-22T01:48:32;4.45;;;4.05;;
35324;SDS011;35135;47.510;19.036;2023-12-22T01:50:59;5.45;;;4.10;;
35324;SDS011;35135;47.510;19.036;2023-12-22T01:53:26;4.20;;;3.80;;
35324;SDS011;35135;47.510;19.036;2023-12-22T01:55:53;4.45;;;4.05;;
35324;SDS011;35135;47.510;19.036;2023-12-22T01:58:21;4.15;;;3.58;;
35324;SDS011;35135;47.510;19.036;2023-12-22T02:00:48;3.72;;;3.42;;
35324;SDS011;35135;47.510;19.036;2023-12-22T02:03:14;4.07;;;3.67;;
35324;SDS011;35135;47.510;19.036;2023-12-22T02:05:43;3.88;;;3.45;;
35324;SDS011;35135;47.510;19.036;2023-12-22T02:08:10;4.05;;;3.72;;
35324;SDS011;35135;47.510;19.036;2023-12-22T02:10:40;3.30;;;3.00;;
35324;SDS011;35135;47.510;19.036;2023-12-22T02:13:06;3.95;;;3.50;;
35324;SDS011;35135;47.510;19.036;2023-12-22T02:15:33;4.90;;;3.28;;
35324;SDS011;35135;47.510;19.036;2023-12-22T02:18:02;4.30;;;3.17;;
35324;SDS011;35135;47.510;19.036;2023-12-22T02:20:28;3.70;;;3.40;;
35324;SDS011;35135;47.510;19.036;2023-12-22T02:22:55;4.47;;;3.35;;
35324;SDS011;35135;47.510;19.036;2023-12-22T02:25:21;3.30;;;3.00;;
35324;SDS011;35135;47.510;19.036;2023-12-22T02:27:50;2.97;;;2.67;;
35324;SDS011;35135;47.510;19.036;2023-12-22T02:32:59;3.30;;;3.00;;
35324;SDS011;35135;47.510;19.036;2023-12-22T02:35:28;3.20;;;2.90;;
35324;SDS011;35135;47.510;19.036;2023-12-22T02:37:58;3.45;;;2.97;;
35324;SDS011;35135;47.510;19.036;2023-12-22T02:40:26;3.10;;;2.80;;
35324;SDS011;35135;47.510;19.036;2023-12-22T02:42:52;3.20;;;2.88;;
35324;SDS011;35135;47.510;19.036;2023-12-22T02:45:19;3.30;;;2.63;;
35324;SDS011;35135;47.510;19.036;2023-12-22T02:47:45;3.45;;;3.10;;
35324;SDS011;35135;47.510;19.036;2023-12-22T02:50:11;2.88;;;2.58;;
35324;SDS011;35135;47.510;19.036;2023-12-22T02:52:39;3.83;;;3.00;;
35324;SDS011;35135;47.510;19.036;2023-12-22T02:55:05;2.70;;;2.47;;
35324;SDS011;35135;47.510;19.036;2023-12-22T02:57:31;3.35;;;3.05;;
35324;SDS011;35135;47.510;19.036;2023-12-22T02:59:57;3.13;;;2.83;;
35324;SDS011;35135;47.510;19.036;2023-12-22T03:02:23;2.95;;;2.65;;
35324;SDS011;35135;47.510;19.036;2023-12-22T03:04:49;2.70;;;2.50;;
35324;SDS011;35135;47.510;19.036;2023-12-22T03:07:15;2.90;;;2.63;;
35324;SDS011;35135;47.510;19.036;2023-12-22T03:09:41;2.53;;;2.33;;
35324;SDS011;35135;47.510;19.036;2023-12-22T03:12:08;2.90;;;2.60;;
35324;SDS011;35135;47.510;19.036;2023-12-22T03:14:34;2.88;;;2.58;;
35324;SDS011;35135;47.510;19.036;2023-12-22T03:17:00;2.60;;;2.40;;
35324;SDS011;35135;47.510;19.036;2023-12-22T03:19:30;2.70;;;2.45;;
35324;SDS011;35135;47.510;19.036;2023-12-22T03:21:56;2.75;;;2.17;;
35324;SDS011;35135;47.510;19.036;2023-12-22T03:24:23;2.72;;;2.30;;
35324;SDS011;35135;47.510;19.036;2023-12-22T03:26:49;3.45;;;2.30;;
35324;SDS011;35135;47.510;19.036;2023-12-22T03:29:15;2.88;;;2.53;;
35324;SDS011;35135;47.510;19.036;2023-12-22T03:31:41;2.33;;;2.13;;
35324;SDS011;35135;47.510;19.036;2023-12-22T03:34:07;2.30;;;2.10;;
35324;SDS011;35135;47.510;19.036;2023-12-22T03:36:32;2.45;;;2.20;;
35324;SDS011;35135;47.510;19.036;2023-12-22T03:38:58;2.40;;;2.17;;
35324;SDS011;35135;47.510;19.036;2023-12-22T03:41:24;2.60;;;2.15;;
35324;SDS011;35135;47.510;19.036;2023-12-22T03:43:50;2.65;;;2.10;;
35324;SDS011;35135;47.510;19.036;2023-12-22T03:46:15;2.42;;;2.10;;
35324;SDS011;35135;47.510;19.036;2023-12-22T03:48:41;2.25;;;2.05;;
35324;SDS011;35135;47.510;19.036;2023-12-22T03:51:07;2.40;;;1.90;;
35324;SDS011;35135;47.510;19.036;2023-12-22T03:53:32;2.53;;;2.30;;
35324;SDS011;35135;47.510;19.036;2023-12-22T03:55:58;2.28;;;1.92;;
35324;SDS011;35135;47.510;19.036;2023-12-22T03:58:24;2.53;;;2.08;;
35324;SDS011;35135;47.510;19.036;2023-12-22T04:00:51;2.85;;;1.73;;
35324;SDS011;35135;47.510;19.036;2023-12-22T04:03:17;2.40;;;1.80;;
35324;SDS011;35135;47.510;19.036;2023-12-22T04:05:43;1.92;;;1.60;;
35324;SDS011;35135;47.510;19.036;2023-12-22T04:08:08;2.00;;;1.55;;
35324;SDS011;35135;47.510;19.036;2023-12-22T04:10:34;1.92;;;1.50;;
35324;SDS011;35135;47.510;19.036;2023-12-22T04:13:00;2.33;;;1.67;;
35324;SDS011;35135;47.510;19.036;2023-12-22T04:15:25;2.47;;;1.98;;
35324;SDS011;35135;47.510;19.036;2023-12-22T04:17:51;1.75;;;1.65;;
35324;SDS011;35135;47.510;19.036;2023-12-22T04:20:17;2.15;;;1.90;;
35324;SDS011;35135;47.510;19.036;2023-12-22T04:22:42;2.38;;;1.60;;
35324;SDS011;35135;47.510;19.036;2023-12-22T04:25:08;2.20;;;1.52;;
35324;SDS011;35135;47.510;19.036;2023-12-22T04:27:34;3.17;;;1.77;;
35324;SDS011;35135;47.510;19.036;2023-12-22T04:30:00;1.73;;;1.50;;
35324;SDS011;35135;47.510;19.036;2023-12-22T04:32:26;3.08;;;1.60;;
35324;SDS011;35135;47.510;19.036;2023-12-22T04:34:51;1.77;;;1.52;;
35324;SDS011;35135;47.510;19.036;2023-12-22T04:37:17;2.08;;;1.38;;
35324;SDS011;35135;47.510;19.036;2023-12-22T04:39:43;1.60;;;1.45;;
35324;SDS011;35135;47.510;19.036;2023-12-22T04:42:08;1.40;;;1.30;;
35324;SDS011;35135;47.510;19.036;2023-12-22T04:44:34;1.75;;;1.40;;
35324;SDS011;35135;47.510;19.036;2023-12-22T04:46:59;1.60;;;1.20;;
35324;SDS011;35135;47.510;19.036;2023-12-22T04:49:25;1.50;;;1.20;;
35324;SDS011;35135;47.510;19.036;2023-12-22T04:51:51;1.63;;;1.23;;
35324;SDS011;35135;47.510;19.036;2023-12-22T04:54:17;2.03;;;1.20;;
35324;SDS011;35135;47.510;19.036;2023-12-22T04:56:42;1.45;;;1.23;;
35324;SDS011;35135;47.510;19.036;2023-12-22T04:59:08;1.80;;;1.50;;
35324;SDS011;35135;47.510;19.036;2023-12-22T05:01:34;1.50;;;1.10;;
35324;SDS011;35135;47.510;19.036;2023-12-22T05:04:00;2.05;;;1.30;;
35324;SDS011;35135;47.510;19.036;2023-12-22T05:06:27;1.75;;;1.10;;
35324;SDS011;35135;47.510;19.036;2023-12-22T05:08:54;1.25;;;1.10;;
35324;SDS011;35135;47.510;19.036;2023-12-22T05:11:21;2.10;;;1.20;;
35324;SDS011;35135;47.510;19.036;2023-12-22T05:13:47;2.13;;;1.30;;
35324;SDS011;35135;47.510;19.036;2023-12-22T05:16:13;1.70;;;1.00;;
35324;SDS011;35135;47.510;19.036;2023-12-22T05:18:39;1.40;;;1.08;;
35324;SDS011;35135;47.510;19.036;2023-12-22T05:21:05;1.20;;;0.98;;
35324;SDS011;35135;47.510;19.036;2023-12-22T05:23:30;1.30;;;0.90;;
35324;SDS011;35135;47.510;19.036;2023-12-22T05:25:56;1.63;;;0.80;;
35324;SDS011;35135;47.510;19.036;2023-12-22T05:28:22;1.73;;;1.00;;
35324;SDS011;35135;47.510;19.036;2023-12-22T05:30:47;1.92;;;0.90;;
35324;SDS011;35135;47.510;19.036;2023-12-22T05:33:13;1.42;;;0.95;;
35324;SDS011;35135;47.510;19.036;2023-12-22T05:35:39;1.05;;;0.82;;
35324;SDS011;35135;47.510;19.036;2023-12-22T05:38:05;2.25;;;0.90;;
35324;SDS011;35135;47.510;19.036;2023-12-22T05:40:31;1.02;;;0.90;;
35324;SDS011;35135;47.510;19.036;2023-12-22T05:42:57;1.55;;;0.90;;
35324;SDS011;35135;47.510;19.036;2023-12-22T05:45:22;2.38;;;0.98;;
35324;SDS011;35135;47.510;19.036;2023-12-22T05:47:49;1.40;;;0.90;;
35324;SDS011;35135;47.510;19.036;2023-12-22T05:50:15;1.85;;;1.00;;
35324;SDS011;35135;47.510;19.036;2023-12-22T05:52:41;1.48;;;0.77;;
35324;SDS011;35135;47.510;19.036;2023-12-22T05:55:08;1.08;;;0.55;;
35324;SDS011;35135;47.510;19.036;2023-12-22T05:57:34;1.60;;;0.80;;
35324;SDS011;35135;47.510;19.036;2023-12-22T06:00:00;1.13;;;0.80;;
35324;SDS011;35135;47.510;19.036;2023-12-22T06:02:26;1.38;;;0.90;;
35324;SDS011;35135;47.510;19.036;2023-12-22T06:04:51;1.15;;;0.70;;
35324;SDS011;35135;47.510;19.036;2023-12-22T06:07:17;1.30;;;0.70;;
35324;SDS011;35135;47.510;19.036;2023-12-22T06:09:44;1.58;;;1.10;;
35324;SDS011;35135;47.510;19.036;2023-12-22T06:12:10;1.77;;;0.80;;
35324;SDS011;35135;47.510;19.036;2023-12-22T06:14:35;1.98;;;0.98;;
35324;SDS011;35135;47.510;19.036;2023-12-22T06:17:01;1.27;;;0.80;;
35324;SDS011;35135;47.510;19.036;2023-12-22T06:19:27;1.20;;;0.70;;
35324;SDS011;35135;47.510;19.036;2023-12-22T06:21:55;1.10;;;0.70;;
35324;SDS011;35135;47.510;19.036;2023-12-22T06:24:22;1.83;;;0.98;;
35324;SDS011;35135;47.510;19.036;2023-12-22T06:26:48;2.47;;;0.77;;
35324;SDS011;35135;47.510;19.036;2023-12-22T06:29:14;1.88;;;0.80;;
35324;SDS011;35135;47.510;19.036;2023-12-22T06:31:40;1.30;;;0.77;;
35324;SDS011;35135;47.510;19.036;2023-12-22T06:34:06;1.48;;;0.85;;
35324;SDS011;35135;47.510;19.036;2023-12-22T06:36:32;1.35;;;0.70;;
35324;SDS011;35135;47.510;19.036;2023-12-22T06:38:58;1.85;;;0.85;;
35324;SDS011;35135;47.510;19.036;2023-12-22T06:41:24;2.15;;;0.70;;
35324;SDS011;35135;47.510;19.036;2023-12-22T06:43:51;1.42;;;0.70;;
35324;SDS011;35135;47.510;19.036;2023-12-22T06:46:18;2.50;;;1.02;;
35324;SDS011;35135;47.510;19.036;2023-12-22T06:48:44;1.10;;;0.70;;
35324;SDS011;35135;47.510;19.036;2023-12-22T06:51:20;1.67;;;0.90;;
35324;SDS011;35135;47.510;19.036;2023-12-22T06:53:48;1.35;;;0.57;;
35324;SDS011;35135;47.510;19.036;2023-12-22T06:56:18;2.03;;;1.00;;
35324;SDS011;35135;47.510;19.036;2023-12-22T06:58:45;1.88;;;0.80;;
35324;SDS011;35135;47.510;19.036;2023-12-22T07:01:23;1.35;;;0.75;;
35324;SDS011;35135;47.510;19.036;2023-12-22T07:03:50;1.73;;;0.73;;
35324;SDS011;35135;47.510;19.036;2023-12-22T07:06:17;3.53;;;0.80;;
35324;SDS011;35135;47.510;19.036;2023-12-22T07:08:43;3.28;;;1.00;;
35324;SDS011;35135;47.510;19.036;2023-12-22T07:11:12;2.20;;;0.80;;
35324;SDS011;35135;47.510;19.036;2023-12-22T07:13:38;2.83;;;1.00;;
35324;SDS011;35135;47.510;19.036;2023-12-22T07:16:04;2.22;;;1.00;;
35324;SDS011;35135;47.510;19.036;2023-12-22T07:18:31;2.13;;;0.95;;
35324;SDS011;35135;47.510;19.036;2023-12-22T07:20:57;2.45;;;0.70;;
35324;SDS011;35135;47.510;19.036;2023-12-22T07:23:28;2.13;;;0.70;;
35324;SDS011;35135;47.510;19.036;2023-12-22T07:25:54;2.00;;;0.90;;
35324;SDS011;35135;47.510;19.036;2023-12-22T07:28:23;2.00;;;0.80;;
35324;SDS011;35135;47.510;19.036;2023-12-22T07:30:55;2.08;;;0.90;;
35324;SDS011;35135;47.510;19.036;2023-12-22T07:33:21;1.40;;;0.60;;
35324;SDS011;35135;47.510;19.036;2023-12-22T07:35:46;1.42;;;0.80;;
35324;SDS011;35135;47.510;19.036;2023-12-22T07:38:12;2.08;;;1.00;;
35324;SDS011;35135;47.510;19.036;2023-12-22T07:40:38;2.22;;;0.80;;
35324;SDS011;35135;47.510;19.036;2023-12-22T07:43:03;2.30;;;0.85;;
35324;SDS011;35135;47.510;19.036;2023-12-22T07:45:29;1.73;;;0.63;;
35324;SDS011;35135;47.510;19.036;2023-12-22T07:47:55;1.98;;;0.98;;
35324;SDS011;35135;47.510;19.036;2023-12-22T07:50:21;2.55;;;0.90;;
35324;SDS011;35135;47.510;19.036;2023-12-22T07:52:46;1.20;;;0.60;;
35324;SDS011;35135;47.510;19.036;2023-12-22T07:55:12;2.35;;;1.00;;
35324;SDS011;35135;47.510;19.036;2023-12-22T07:57:38;2.83;;;0.95;;
35324;SDS011;35135;47.510;19.036;2023-12-22T08:00:04;2.08;;;0.80;;
35324;SDS011;35135;47.510;19.036;2023-12-22T08:02:31;3.55;;;1.05;;
35324;SDS011;35135;47.510;19.036;2023-12-22T08:04:58;2.63;;;0.80;;
35324;SDS011;35135;47.510;19.036;2023-12-22T08:07:23;1.60;;;0.90;;
35324;SDS011;35135;47.510;19.036;2023-12-22T08:09:49;1.50;;;0.57;;
35324;SDS011;35135;47.510;19.036;2023-12-22T08:12:15;1.77;;;0.70;;
35324;SDS011;35135;47.510;19.036;2023-12-22T08:14:41;2.17;;;0.90;;
35324;SDS011;35135;47.510;19.036;2023-12-22T08:17:07;1.92;;;0.70;;
35324;SDS011;35135;47.510;19.036;2023-12-22T08:19:32;3.08;;;0.90;;
35324;SDS011;35135;47.510;19.036;2023-12-22T08:21:58;1.65;;;0.70;;
35324;SDS011;35135;47.510;19.036;2023-12-22T08:24:24;1.23;;;0.85;;
35324;SDS011;35135;47.510;19.036;2023-12-22T08:26:50;2.45;;;0.90;;
35324;SDS011;35135;47.510;19.036;2023-12-22T08:29:16;1.67;;;0.68;;
35324;SDS011;35135;47.510;19.036;2023-12-22T08:31:41;1.35;;;0.70;;
35324;SDS011;35135;47.510;19.036;2023-12-22T08:34:08;1.88;;;0.80;;
35324;SDS011;35135;47.510;19.036;2023-12-22T08:36:34;2.08;;;0.90;;
35324;SDS011;35135;47.510;19.036;2023-12-22T08:39:00;2.75;;;1.02;;
35324;SDS011;35135;47.510;19.036;2023-12-22T08:41:25;1.95;;;0.90;;
35324;SDS011;35135;47.510;19.036;2023-12-22T08:43:52;1.65;;;0.77;;
35324;SDS011;35135;47.510;19.036;2023-12-22T08:46:17;1.25;;;0.55;;
35324;SDS011;35135;47.510;19.036;2023-12-22T08:48:43;2.00;;;0.73;;
35324;SDS011;35135;47.510;19.036;2023-12-22T08:51:09;3.22;;;0.80;;
35324;SDS011;35135;47.510;19.036;2023-12-22T08:53:34;15.48;;;1.83;;
35324;SDS011;35135;47.510;19.036;2023-12-22T08:56:02;5.47;;;1.35;;
35324;SDS011;35135;47.510;19.036;2023-12-22T08:58:28;8.35;;;1.40;;
35324;SDS011;35135;47.510;19.036;2023-12-22T09:00:54;4.47;;;1.20;;
35324;SDS011;35135;47.510;19.036;2023-12-22T09:03:20;5.78;;;1.20;;
35324;SDS011;35135;47.510;19.036;2023-12-22T09:05:46;5.50;;;1.38;;
35324;SDS011;35135;47.510;19.036;2023-12-22T09:08:12;6.13;;;1.40;;
35324;SDS011;35135;47.510;19.036;2023-12-22T09:10:38;6.63;;;1.70;;
35324;SDS011;35135;47.510;19.036;2023-12-22T09:13:04;8.63;;;1.75;;
35324;SDS011;35135;47.510;19.036;2023-12-22T09:15:29;7.75;;;1.75;;
35324;SDS011;35135;47.510;19.036;2023-12-22T09:17:55;6.78;;;2.05;;
35324;SDS011;35135;47.510;19.036;2023-12-22T09:20:21;5.70;;;1.55;;
35324;SDS011;35135;47.510;19.036;2023-12-22T09:22:47;8.70;;;1.88;;
35324;SDS011;35135;47.510;19.036;2023-12-22T09:25:13;5.57;;;1.77;;
35324;SDS011;35135;47.510;19.036;2023-12-22T09:27:39;5.10;;;1.50;;
35324;SDS011;35135;47.510;19.036;2023-12-22T09:30:04;3.10;;;1.40;;
35324;SDS011;35135;47.510;19.036;2023-12-22T09:32:33;4.78;;;1.35;;
35324;SDS011;35135;47.510;19.036;2023-12-22T09:35:00;5.15;;;1.92;;
35324;SDS011;35135;47.510;19.036;2023-12-22T09:37:26;4.00;;;1.50;;
35324;SDS011;35135;47.510;19.036;2023-12-22T09:39:52;4.93;;;1.52;;
35324;SDS011;35135;47.510;19.036;2023-12-22T09:42:18;4.20;;;1.33;;
35324;SDS011;35135;47.510;19.036;2023-12-22T09:44:46;9.55;;;1.40;;
35324;SDS011;35135;47.510;19.036;2023-12-22T09:47:14;5.95;;;2.13;;
35324;SDS011;35135;47.510;19.036;2023-12-22T09:49:42;3.53;;;1.10;;
35324;SDS011;35135;47.510;19.036;2023-12-22T09:52:09;3.33;;;1.30;;
35324;SDS011;35135;47.510;19.036;2023-12-22T09:54:36;4.97;;;1.92;;
35324;SDS011;35135;47.510;19.036;2023-12-22T09:57:02;6.43;;;1.45;;
35324;SDS011;35135;47.510;19.036;2023-12-22T09:59:30;4.38;;;1.73;;
35324;SDS011;35135;47.510;19.036;2023-12-22T10:01:56;4.47;;;1.40;;
35324;SDS011;35135;47.510;19.036;2023-12-22T10:04:24;5.22;;;1.45;;
35324;SDS011;35135;47.510;19.036;2023-12-22T10:06:50;3.13;;;1.30;;
35324;SDS011;35135;47.510;19.036;2023-12-22T10:09:18;5.55;;;1.70;;
35324;SDS011;35135;47.510;19.036;2023-12-22T10:11:44;3.30;;;1.63;;
35324;SDS011;35135;47.510;19.036;2023-12-22T10:14:14;3.72;;;1.27;;
35324;SDS011;35135;47.510;19.036;2023-12-22T10:16:46;2.90;;;1.55;;
35324;SDS011;35135;47.510;19.036;2023-12-22T10:19:16;4.05;;;1.25;;
35324;SDS011;35135;47.510;19.036;2023-12-22T10:21:42;4.03;;;1.40;;
35324;SDS011;35135;47.510;19.036;2023-12-22T10:24:10;4.18;;;1.70;;
35324;SDS011;35135;47.510;19.036;2023-12-22T10:27:07;5.28;;;1.85;;
35324;SDS011;35135;47.510;19.036;2023-12-22T10:29:37;9.65;;;3.55;;
35324;SDS011;35135;47.510;19.036;2023-12-22T10:32:04;6.82;;;2.70;;
35324;SDS011;35135;47.510;19.036;2023-12-22T10:34:30;5.55;;;1.90;;
35324;SDS011;35135;47.510;19.036;2023-12-22T10:36:57;4.93;;;2.17;;
35324;SDS011;35135;47.510;19.036;2023-12-22T10:39:29;3.75;;;1.65;;
35324;SDS011;35135;47.510;19.036;2023-12-22T10:41:56;9.68;;;2.10;;
35324;SDS011;35135;47.510;19.036;2023-12-22T10:44:25;9.85;;;2.90;;
35324;SDS011;35135;47.510;19.036;2023-12-22T10:46:52;6.70;;;2.25;;
35324;SDS011;35135;47.510;19.036;2023-12-22T10:49:19;6.40;;;2.55;;
35324;SDS011;35135;47.510;19.036;2023-12-22T10:51:46;10.13;;;3.10;;
35324;SDS011;35135;47.510;19.036;2023-12-22T10:54:14;7.20;;;3.05;;
35324;SDS011;35135;47.510;19.036;2023-12-22T10:56:41;11.10;;;3.88;;
35324;SDS011;35135;47.510;19.036;2023-12-22T10:59:06;10.52;;;3.53;;
35324;SDS011;35135;47.510;19.036;2023-12-22T11:01:33;12.75;;;4.10;;
35324;SDS011;35135;47.510;19.036;2023-12-22T11:04:07;7.80;;;3.20;;
35324;SDS011;35135;47.510;19.036;2023-12-22T11:06:38;10.52;;;4.13;;
35324;SDS011;35135;47.510;19.036;2023-12-22T11:09:07;9.50;;;3.70;;
35324;SDS011;35135;47.510;19.036;2023-12-22T11:11:34;14.98;;;3.97;;
35324;SDS011;35135;47.510;19.036;2023-12-22T11:14:05;7.28;;;3.58;;
35324;SDS011;35135;47.510;19.036;2023-12-22T11:16:32;9.85;;;3.50;;
35324;SDS011;35135;47.510;19.036;2023-12-22T11:18:59;9.20;;;3.58;;
35324;SDS011;35135;47.510;19.036;2023-12-22T11:21:26;5.68;;;3.55;;
35324;SDS011;35135;47.510;19.036;2023-12-22T11:23:53;14.25;;;3.45;;
35324;SDS011;35135;47.510;19.036;2023-12-22T11:26:20;7.25;;;3.67;;
35324;SDS011;35135;47.510;19.036;2023-12-22T11:28:51;5.88;;;3.00;;
35324;SDS011;35135;47.510;19.036;2023-12-22T11:31:17;5.22;;;3.03;;
35324;SDS011;35135;47.510;19.036;2023-12-22T11:33:47;7.82;;;3.28;;
35324;SDS011;35135;47.510;19.036;2023-12-22T11:36:14;8.52;;;3.50;;
35324;SDS011;35135;47.510;19.036;2023-12-22T11:38:41;6.78;;;3.22;;
35324;SDS011;35135;47.510;19.036;2023-12-22T11:41:17;5.00;;;3.42;;
35324;SDS011;35135;47.510;19.036;2023-12-22T11:43:49;7.32;;;3.72;;
35324;SDS011;35135;47.510;19.036;2023-12-22T11:46:17;6.65;;;3.67;;
35324;SDS011;35135;47.510;19.036;2023-12-22T11:48:48;5.50;;;3.30;;
35324;SDS011;35135;47.510;19.036;2023-12-22T11:51:15;7.82;;;3.03;;
35324;SDS011;35135;47.510;19.036;2023-12-22T11:53:42;5.72;;;2.90;;
35324;SDS011;35135;47.510;19.036;2023-12-22T11:56:09;9.98;;;3.10;;
35324;SDS011;35135;47.510;19.036;2023-12-22T12:01:17;7.23;;;3.00;;
35324;SDS011;35135;47.510;19.036;2023-12-22T12:04:02;5.82;;;3.00;;
35324;SDS011;35135;47.510;19.036;2023-12-22T12:06:32;7.10;;;2.80;;
35324;SDS011;35135;47.510;19.036;2023-12-22T12:09:00;7.43;;;2.85;;
35324;SDS011;35135;47.510;19.036;2023-12-22T12:14:36;7.72;;;3.35;;
35324;SDS011;35135;47.510;19.036;2023-12-22T12:17:06;6.93;;;3.40;;
35324;SDS011;35135;47.510;19.036;2023-12-22T12:19:34;6.30;;;3.25;;
35324;SDS011;35135;47.510;19.036;2023-12-22T12:22:02;7.93;;;3.17;;
35324;SDS011;35135;47.510;19.036;2023-12-22T12:24:28;8.15;;;3.13;;
35324;SDS011;35135;47.510;19.036;2023-12-22T12:26:54;7.00;;;2.92;;
35324;SDS011;35135;47.510;19.036;2023-12-22T12:29:20;7.32;;;3.03;;
35324;SDS011;35135;47.510;19.036;2023-12-22T12:31:47;7.60;;;2.75;;
35324;SDS011;35135;47.510;19.036;2023-12-22T12:34:12;6.05;;;2.50;;
35324;SDS011;35135;47.510;19.036;2023-12-22T12:36:39;7.68;;;3.00;;
35324;SDS011;35135;47.510;19.036;2023-12-22T12:39:06;6.00;;;2.60;;
35324;SDS011;35135;47.510;19.036;2023-12-22T12:41:35;5.05;;;2.40;;
35324;SDS011;35135;47.510;19.036;2023-12-22T12:44:09;6.20;;;2.95;;
35324;SDS011;35135;47.510;19.036;2023-12-22T12:46:36;5.47;;;2.60;;
35324;SDS011;35135;47.510;19.036;2023-12-22T12:49:03;8.63;;;2.80;;
35324;SDS011;35135;47.510;19.036;2023-12-22T12:51:40;6.45;;;2.50;;
35324;SDS011;35135;47.510;19.036;2023-12-22T12:54:12;6.03;;;2.58;;
35324;SDS011;35135;47.510;19.036;2023-12-22T12:56:45;5.30;;;2.00;;
35324;SDS011;35135;47.510;19.036;2023-12-22T12:59:13;4.82;;;2.33;;
35324;SDS011;35135;47.510;19.036;2023-12-22T13:01:44;4.32;;;2.30;;
35324;SDS011;35135;47.510;19.036;2023-12-22T13:04:13;5.55;;;2.10;;
35324;SDS011;35135;47.510;19.036;2023-12-22T13:06:43;7.70;;;2.47;;
35324;SDS011;35135;47.510;19.036;2023-12-22T13:09:12;5.20;;;2.00;;
35324;SDS011;35135;47.510;19.036;2023-12-22T13:11:39;4.13;;;1.83;;
35324;SDS011;35135;47.510;19.036;2023-12-22T13:14:07;4.90;;;1.80;;
35324;SDS011;35135;47.510;19.036;2023-12-22T13:16:34;6.18;;;2.03;;
35324;SDS011;35135;47.510;19.036;2023-12-22T13:19:00;4.32;;;1.85;;
35324;SDS011;35135;47.510;19.036;2023-12-22T13:21:26;4.57;;;1.83;;
35324;SDS011;35135;47.510;19.036;2023-12-22T13:24:08;5.22;;;1.70;;
35324;SDS011;35135;47.510;19.036;2023-12-22T13:26:37;4.00;;;1.70;;
35324;SDS011;35135;47.510;19.036;2023-12-22T13:29:04;3.97;;;1.65;;
35324;SDS011;35135;47.510;19.036;2023-12-22T13:31:30;6.10;;;1.52;;
35324;SDS011;35135;47.510;19.036;2023-12-22T13:33:57;3.55;;;1.90;;
35324;SDS011;35135;47.510;19.036;2023-12-22T13:36:23;3.55;;;1.80;;
35324;SDS011;35135;47.510;19.036;2023-12-22T13:38:49;3.83;;;1.50;;
35324;SDS011;35135;47.510;19.036;2023-12-22T13:41:15;3.50;;;1.60;;
35324;SDS011;35135;47.510;19.036;2023-12-22T13:43:42;3.67;;;1.40;;
35324;SDS011;35135;47.510;19.036;2023-12-22T13:46:09;5.90;;;1.50;;
35324;SDS011;35135;47.510;19.036;2023-12-22T13:48:39;5.68;;;1.38;;
35324;SDS011;35135;47.510;19.036;2023-12-22T13:51:05;3.13;;;1.17;;
35324;SDS011;35135;47.510;19.036;2023-12-22T13:53:31;5.50;;;1.20;;
35324;SDS011;35135;47.510;19.036;2023-12-22T13:55:57;5.05;;;1.27;;
35324;SDS011;35135;47.510;19.036;2023-12-22T13:58:24;4.63;;;1.33;;
35324;SDS011;35135;47.510;19.036;2023-12-22T14:00:51;2.03;;;1.17;;
35324;SDS011;35135;47.510;19.036;2023-12-22T14:03:17;4.63;;;1.05;;
35324;SDS011;35135;47.510;19.036;2023-12-22T14:05:47;3.35;;;1.00;;
35324;SDS011;35135;47.510;19.036;2023-12-22T14:08:13;5.32;;;1.35;;
35324;SDS011;35135;47.510;19.036;2023-12-22T14:10:46;4.22;;;1.08;;
35324;SDS011;35135;47.510;19.036;2023-12-22T14:13:13;7.03;;;1.45;;
35324;SDS011;35135;47.510;19.036;2023-12-22T14:15:39;3.75;;;0.98;;
35324;SDS011;35135;47.510;19.036;2023-12-22T14:18:06;2.78;;;1.00;;
35324;SDS011;35135;47.510;19.036;2023-12-22T14:20:32;5.70;;;1.10;;
35324;SDS011;35135;47.510;19.036;2023-12-22T14:22:57;2.95;;;1.02;;
35324;SDS011;35135;47.510;19.036;2023-12-22T14:25:23;5.10;;;1.10;;
35324;SDS011;35135;47.510;19.036;2023-12-22T14:27:51;2.40;;;1.13;;
35324;SDS011;35135;47.510;19.036;2023-12-22T14:30:18;3.97;;;1.10;;
35324;SDS011;35135;47.510;19.036;2023-12-22T14:32:44;7.25;;;1.58;;
35324;SDS011;35135;47.510;19.036;2023-12-22T14:35:10;11.88;;;2.22;;
35324;SDS011;35135;47.510;19.036;2023-12-22T14:37:36;27.10;;;3.08;;
35324;SDS011;35135;47.510;19.036;2023-12-22T14:40:02;16.30;;;2.47;;